sensor_id;sensor_type;location;lat;lon;timestamp;P1;durP1;ratioP1;P2;durP2;ratioP2
63089;SDS011;49174;43.198;27.824;2022-07-10T00:01:56;2.88;;;2.00;;
63089;SDS011;49174;43.198;27.824;2022-07-10T00:04:21;2.65;;;2.28;;
63089;SDS011;49174;43.198;27.824;2022-07-10T00:06:47;2.97;;;2.20;;
63089;SDS011;49174;43.198;27.824;2022-07-10T00:09:13;3.47;;;2.03;;
63089;SDS011;49174;43.198;27.824;2022-07-10T00:11:39;4.75;;;2.40;;
63089;SDS011;49174;43.198;27.824;2022-07-10T00:14:05;2.50;;;1.58;;
63089;SDS011;49174;43.198;27.824;2022-07-10T00:16:31;3.72;;;1.90;;
63089;SDS011;49174;43.198;27.824;2022-07-10T00:18:56;3.33;;;1.58;;
63089;SDS011;49174;43.198;27.824;2022-07-10T00:21:22;2.72;;;1.60;;
63089;SDS011;49174;43.198;27.824;2022-07-10T00:23:47;3.90;;;1.95;;
63089;SDS011;49174;43.198;27.824;2022-07-10T00:26:13;2.58;;;1.63;;
63089;SDS011;49174;43.198;27.824;2022-07-10T00:28:39;4.28;;;2.13;;
63089;SDS011;49174;43.198;27.824;2022-07-10T00:31:04;3.65;;;1.50;;
63089;SDS011;49174;43.198;27.824;2022-07-10T00:33:30;1.77;;;1.45;;
63089;SDS011;49174;43.198;27.824;2022-07-10T00:35:57;3.42;;;1.70;;
63089;SDS011;49174;43.198;27.824;2022-07-10T00:38:24;2.67;;;1.50;;
63089;SDS011;49174;43.198;27.824;2022-07-10T00:40:49;2.03;;;1.83;;
63089;SDS011;49174;43.198;27.824;2022-07-10T00:43:16;3.42;;;1.65;;
63089;SDS011;49174;43.198;27.824;2022-07-10T00:45:41;2.38;;;1.58;;
63089;SDS011;49174;43.198;27.824;2022-07-10T00:48:07;3.17;;;1.80;;
63089;SDS011;49174;43.198;27.824;2022-07-10T00:50:34;2.30;;;1.77;;
63089;SDS011;49174;43.198;27.824;2022-07-10T00:53:00;5.43;;;1.80;;
63089;SDS011;49174;43.198;27.824;2022-07-10T00:55:28;3.60;;;1.85;;
63089;SDS011;49174;43.198;27.824;2022-07-10T00:57:55;2.33;;;1.48;;
63089;SDS011;49174;43.198;27.824;2022-07-10T01:00:20;2.45;;;1.73;;
63089;SDS011;49174;43.198;27.824;2022-07-10T01:02:47;2.50;;;1.83;;
63089;SDS011;49174;43.198;27.824;2022-07-10T01:05:12;4.85;;;1.70;;
63089;SDS011;49174;43.198;27.824;2022-07-10T01:07:38;6.22;;;1.90;;
63089;SDS011;49174;43.198;27.824;2022-07-10T01:10:04;2.10;;;1.65;;
63089;SDS011;49174;43.198;27.824;2022-07-10T01:12:30;2.35;;;1.60;;
63089;SDS011;49174;43.198;27.824;2022-07-10T01:14:56;5.10;;;1.95;;
63089;SDS011;49174;43.198;27.824;2022-07-10T01:17:23;2.20;;;1.42;;
63089;SDS011;49174;43.198;27.824;2022-07-10T01:19:49;3.20;;;1.77;;
63089;SDS011;49174;43.198;27.824;2022-07-10T01:22:15;4.43;;;1.85;;
63089;SDS011;49174;43.198;27.824;2022-07-10T01:24:40;5.18;;;1.90;;
63089;SDS011;49174;43.198;27.824;2022-07-10T01:27:06;4.65;;;1.98;;
63089;SDS011;49174;43.198;27.824;2022-07-10T01:29:33;3.33;;;1.95;;
63089;SDS011;49174;43.198;27.824;2022-07-10T01:32:00;3.70;;;2.00;;
63089;SDS011;49174;43.198;27.824;2022-07-10T01:34:26;3.20;;;1.90;;
63089;SDS011;49174;43.198;27.824;2022-07-10T01:36:52;3.20;;;2.20;;
63089;SDS011;49174;43.198;27.824;2022-07-10T01:39:18;3.05;;;2.08;;
63089;SDS011;49174;43.198;27.824;2022-07-10T01:41:44;5.85;;;2.45;;
63089;SDS011;49174;43.198;27.824;2022-07-10T01:44:09;3.75;;;2.28;;
63089;SDS011;49174;43.198;27.824;2022-07-10T01:46:35;2.90;;;2.47;;
63089;SDS011;49174;43.198;27.824;2022-07-10T01:49:01;3.40;;;2.10;;
63089;SDS011;49174;43.198;27.824;2022-07-10T01:51:27;2.53;;;1.85;;
63089;SDS011;49174;43.198;27.824;2022-07-10T01:53:52;3.03;;;2.40;;
63089;SDS011;49174;43.198;27.824;2022-07-10T01:56:18;3.47;;;2.50;;
63089;SDS011;49174;43.198;27.824;2022-07-10T01:58:43;4.47;;;2.17;;
63089;SDS011;49174;43.198;27.824;2022-07-10T02:01:09;3.08;;;2.10;;
63089;SDS011;49174;43.198;27.824;2022-07-10T02:03:35;2.70;;;1.83;;
63089;SDS011;49174;43.198;27.824;2022-07-10T02:08:45;5.30;;;2.20;;
63089;SDS011;49174;43.198;27.824;2022-07-10T02:11:11;3.25;;;2.10;;
63089;SDS011;49174;43.198;27.824;2022-07-10T02:13:37;5.05;;;2.67;;
63089;SDS011;49174;43.198;27.824;2022-07-10T02:16:03;3.58;;;2.63;;
63089;SDS011;49174;43.198;27.824;2022-07-10T02:18:29;3.33;;;2.38;;
63089;SDS011;49174;43.198;27.824;2022-07-10T02:20:55;3.95;;;2.40;;
63089;SDS011;49174;43.198;27.824;2022-07-10T02:23:21;5.30;;;2.15;;
63089;SDS011;49174;43.198;27.824;2022-07-10T02:25:46;3.08;;;1.98;;
63089;SDS011;49174;43.198;27.824;2022-07-10T02:28:12;3.80;;;2.20;;
63089;SDS011;49174;43.198;27.824;2022-07-10T02:30:38;4.07;;;2.33;;
63089;SDS011;49174;43.198;27.824;2022-07-10T02:33:03;6.18;;;2.33;;
63089;SDS011;49174;43.198;27.824;2022-07-10T02:35:29;3.00;;;1.95;;
63089;SDS011;49174;43.198;27.824;2022-07-10T02:37:54;2.78;;;1.85;;
63089;SDS011;49174;43.198;27.824;2022-07-10T02:40:21;3.42;;;2.47;;
63089;SDS011;49174;43.198;27.824;2022-07-10T02:42:46;5.80;;;2.05;;
63089;SDS011;49174;43.198;27.824;2022-07-10T02:45:12;5.28;;;2.28;;
63089;SDS011;49174;43.198;27.824;2022-07-10T02:47:37;4.10;;;2.30;;
63089;SDS011;49174;43.198;27.824;2022-07-10T02:50:03;9.80;;;4.65;;
63089;SDS011;49174;43.198;27.824;2022-07-10T02:52:29;4.40;;;2.35;;
63089;SDS011;49174;43.198;27.824;2022-07-10T02:54:58;2.95;;;2.20;;
63089;SDS011;49174;43.198;27.824;2022-07-10T02:57:23;3.00;;;2.30;;
63089;SDS011;49174;43.198;27.824;2022-07-10T02:59:49;3.88;;;2.22;;
63089;SDS011;49174;43.198;27.824;2022-07-10T03:02:15;4.80;;;2.35;;
63089;SDS011;49174;43.198;27.824;2022-07-10T03:04:44;4.15;;;2.50;;
63089;SDS011;49174;43.198;27.824;2022-07-10T03:07:10;3.70;;;2.15;;
63089;SDS011;49174;43.198;27.824;2022-07-10T03:09:35;4.82;;;2.42;;
63089;SDS011;49174;43.198;27.824;2022-07-10T03:12:01;3.50;;;2.00;;
63089;SDS011;49174;43.198;27.824;2022-07-10T03:14:27;2.65;;;2.05;;
63089;SDS011;49174;43.198;27.824;2022-07-10T03:16:52;3.17;;;1.90;;
63089;SDS011;49174;43.198;27.824;2022-07-10T03:19:18;2.08;;;1.80;;
63089;SDS011;49174;43.198;27.824;2022-07-10T03:21:43;4.55;;;2.20;;
63089;SDS011;49174;43.198;27.824;2022-07-10T03:24:09;4.15;;;1.85;;
63089;SDS011;49174;43.198;27.824;2022-07-10T03:26:35;7.03;;;2.60;;
63089;SDS011;49174;43.198;27.824;2022-07-10T03:29:00;3.13;;;2.28;;
63089;SDS011;49174;43.198;27.824;2022-07-10T03:31:26;3.17;;;2.10;;
63089;SDS011;49174;43.198;27.824;2022-07-10T03:33:51;3.80;;;2.45;;
63089;SDS011;49174;43.198;27.824;2022-07-10T03:36:18;5.25;;;2.35;;
63089;SDS011;49174;43.198;27.824;2022-07-10T03:38:44;4.72;;;2.20;;
63089;SDS011;49174;43.198;27.824;2022-07-10T03:41:11;4.18;;;1.88;;
63089;SDS011;49174;43.198;27.824;2022-07-10T03:43:37;3.17;;;2.70;;
63089;SDS011;49174;43.198;27.824;2022-07-10T03:46:03;5.75;;;2.53;;
63089;SDS011;49174;43.198;27.824;2022-07-10T03:48:29;3.40;;;2.50;;
63089;SDS011;49174;43.198;27.824;2022-07-10T03:50:54;3.53;;;2.40;;
63089;SDS011;49174;43.198;27.824;2022-07-10T03:53:20;4.13;;;2.10;;
63089;SDS011;49174;43.198;27.824;2022-07-10T03:55:45;2.60;;;2.22;;
63089;SDS011;49174;43.198;27.824;2022-07-10T03:58:11;2.88;;;2.13;;
63089;SDS011;49174;43.198;27.824;2022-07-10T04:00:36;3.58;;;2.13;;
63089;SDS011;49174;43.198;27.824;2022-07-10T04:03:04;3.83;;;2.67;;
63089;SDS011;49174;43.198;27.824;2022-07-10T04:05:31;2.55;;;2.20;;
63089;SDS011;49174;43.198;27.824;2022-07-10T04:07:58;4.68;;;2.20;;
63089;SDS011;49174;43.198;27.824;2022-07-10T04:10:25;3.40;;;2.50;;
63089;SDS011;49174;43.198;27.824;2022-07-10T04:12:51;2.65;;;2.35;;
63089;SDS011;49174;43.198;27.824;2022-07-10T04:15:17;7.60;;;5.75;;
63089;SDS011;49174;43.198;27.824;2022-07-10T04:17:43;4.07;;;2.72;;
63089;SDS011;49174;43.198;27.824;2022-07-10T04:20:09;4.22;;;2.40;;
63089;SDS011;49174;43.198;27.824;2022-07-10T04:22:35;3.30;;;2.55;;
63089;SDS011;49174;43.198;27.824;2022-07-10T04:25:01;4.75;;;2.53;;
63089;SDS011;49174;43.198;27.824;2022-07-10T04:27:27;2.83;;;2.20;;
63089;SDS011;49174;43.198;27.824;2022-07-10T04:29:52;3.08;;;2.13;;
63089;SDS011;49174;43.198;27.824;2022-07-10T04:32:18;4.38;;;2.30;;
63089;SDS011;49174;43.198;27.824;2022-07-10T04:34:44;3.30;;;2.38;;
63089;SDS011;49174;43.198;27.824;2022-07-10T04:37:09;2.88;;;2.20;;
63089;SDS011;49174;43.198;27.824;2022-07-10T04:39:36;2.78;;;2.40;;
63089;SDS011;49174;43.198;27.824;2022-07-10T04:42:05;3.58;;;2.30;;
63089;SDS011;49174;43.198;27.824;2022-07-10T04:44:32;2.53;;;2.22;;
63089;SDS011;49174;43.198;27.824;2022-07-10T04:46:58;2.63;;;2.42;;
63089;SDS011;49174;43.198;27.824;2022-07-10T04:49:24;4.13;;;2.58;;
63089;SDS011;49174;43.198;27.824;2022-07-10T04:51:50;4.78;;;2.85;;
63089;SDS011;49174;43.198;27.824;2022-07-10T04:54:15;9.73;;;6.18;;
63089;SDS011;49174;43.198;27.824;2022-07-10T04:56:41;3.83;;;3.00;;
63089;SDS011;49174;43.198;27.824;2022-07-10T04:59:06;4.03;;;2.95;;
63089;SDS011;49174;43.198;27.824;2022-07-10T05:01:33;5.07;;;2.47;;
63089;SDS011;49174;43.198;27.824;2022-07-10T05:03:58;3.38;;;2.63;;
63089;SDS011;49174;43.198;27.824;2022-07-10T05:06:24;3.92;;;2.75;;
63089;SDS011;49174;43.198;27.824;2022-07-10T05:08:49;4.13;;;3.17;;
63089;SDS011;49174;43.198;27.824;2022-07-10T05:11:15;4.15;;;2.35;;
63089;SDS011;49174;43.198;27.824;2022-07-10T05:13:41;2.22;;;1.90;;
63089;SDS011;49174;43.198;27.824;2022-07-10T05:16:10;3.38;;;2.30;;
63089;SDS011;49174;43.198;27.824;2022-07-10T05:18:36;3.10;;;2.40;;
63089;SDS011;49174;43.198;27.824;2022-07-10T05:21:01;5.47;;;2.58;;
63089;SDS011;49174;43.198;27.824;2022-07-10T05:23:27;3.72;;;1.98;;
63089;SDS011;49174;43.198;27.824;2022-07-10T05:25:52;3.35;;;2.17;;
63089;SDS011;49174;43.198;27.824;2022-07-10T05:28:19;4.68;;;2.28;;
63089;SDS011;49174;43.198;27.824;2022-07-10T05:30:45;5.72;;;2.30;;
63089;SDS011;49174;43.198;27.824;2022-07-10T05:33:10;3.58;;;2.40;;
63089;SDS011;49174;43.198;27.824;2022-07-10T05:35:36;3.65;;;2.00;;
63089;SDS011;49174;43.198;27.824;2022-07-10T05:38:01;3.40;;;2.00;;
63089;SDS011;49174;43.198;27.824;2022-07-10T05:40:27;3.17;;;2.00;;
63089;SDS011;49174;43.198;27.824;2022-07-10T05:42:52;2.55;;;1.95;;
63089;SDS011;49174;43.198;27.824;2022-07-10T05:45:18;2.88;;;2.03;;
63089;SDS011;49174;43.198;27.824;2022-07-10T05:47:44;6.45;;;2.25;;
63089;SDS011;49174;43.198;27.824;2022-07-10T05:50:10;3.10;;;1.95;;
63089;SDS011;49174;43.198;27.824;2022-07-10T05:52:36;3.45;;;2.22;;
63089;SDS011;49174;43.198;27.824;2022-07-10T05:55:02;3.67;;;2.53;;
63089;SDS011;49174;43.198;27.824;2022-07-10T05:57:32;3.80;;;2.40;;
63089;SDS011;49174;43.198;27.824;2022-07-10T05:59:57;2.85;;;2.13;;
63089;SDS011;49174;43.198;27.824;2022-07-10T06:02:23;2.92;;;2.10;;
63089;SDS011;49174;43.198;27.824;2022-07-10T06:04:48;2.53;;;2.00;;
63089;SDS011;49174;43.198;27.824;2022-07-10T06:07:14;4.75;;;2.63;;
63089;SDS011;49174;43.198;27.824;2022-07-10T06:09:40;3.78;;;2.40;;
63089;SDS011;49174;43.198;27.824;2022-07-10T06:12:06;4.72;;;2.38;;
63089;SDS011;49174;43.198;27.824;2022-07-10T06:14:32;6.25;;;3.00;;
63089;SDS011;49174;43.198;27.824;2022-07-10T06:16:58;3.67;;;2.40;;
63089;SDS011;49174;43.198;27.824;2022-07-10T06:19:24;3.33;;;2.17;;
63089;SDS011;49174;43.198;27.824;2022-07-10T06:21:50;3.50;;;2.20;;
63089;SDS011;49174;43.198;27.824;2022-07-10T06:24:35;2.58;;;1.90;;
63089;SDS011;49174;43.198;27.824;2022-07-10T06:27:00;4.85;;;2.20;;
63089;SDS011;49174;43.198;27.824;2022-07-10T06:29:26;4.55;;;2.15;;
63089;SDS011;49174;43.198;27.824;2022-07-10T06:31:52;3.08;;;1.98;;
63089;SDS011;49174;43.198;27.824;2022-07-10T06:34:17;3.35;;;2.50;;
63089;SDS011;49174;43.198;27.824;2022-07-10T06:36:44;3.35;;;2.40;;
63089;SDS011;49174;43.198;27.824;2022-07-10T06:39:10;3.97;;;1.90;;
63089;SDS011;49174;43.198;27.824;2022-07-10T06:41:35;3.70;;;2.30;;
63089;SDS011;49174;43.198;27.824;2022-07-10T06:44:01;4.45;;;2.15;;
63089;SDS011;49174;43.198;27.824;2022-07-10T06:46:27;3.63;;;2.83;;
63089;SDS011;49174;43.198;27.824;2022-07-10T06:48:54;5.13;;;3.63;;
63089;SDS011;49174;43.198;27.824;2022-07-10T06:51:19;5.03;;;3.47;;
63089;SDS011;49174;43.198;27.824;2022-07-10T06:53:45;7.40;;;4.10;;
63089;SDS011;49174;43.198;27.824;2022-07-10T06:56:12;6.60;;;4.60;;
63089;SDS011;49174;43.198;27.824;2022-07-10T06:58:40;3.67;;;2.80;;
63089;SDS011;49174;43.198;27.824;2022-07-10T07:01:05;6.50;;;3.30;;
63089;SDS011;49174;43.198;27.824;2022-07-10T07:03:31;6.32;;;3.90;;
63089;SDS011;49174;43.198;27.824;2022-07-10T07:05:56;6.38;;;3.70;;
63089;SDS011;49174;43.198;27.824;2022-07-10T07:08:22;4.10;;;2.80;;
63089;SDS011;49174;43.198;27.824;2022-07-10T07:10:48;4.53;;;2.40;;
63089;SDS011;49174;43.198;27.824;2022-07-10T07:13:13;5.35;;;2.40;;
63089;SDS011;49174;43.198;27.824;2022-07-10T07:15:39;4.50;;;2.25;;
63089;SDS011;49174;43.198;27.824;2022-07-10T07:18:07;3.63;;;2.20;;
63089;SDS011;49174;43.198;27.824;2022-07-10T07:20:33;2.92;;;2.30;;
63089;SDS011;49174;43.198;27.824;2022-07-10T07:23:18;4.90;;;2.60;;
63089;SDS011;49174;43.198;27.824;2022-07-10T07:25:45;3.33;;;2.28;;
63089;SDS011;49174;43.198;27.824;2022-07-10T07:28:17;4.32;;;2.20;;
63089;SDS011;49174;43.198;27.824;2022-07-10T07:30:47;2.25;;;1.75;;
63089;SDS011;49174;43.198;27.824;2022-07-10T07:33:13;8.43;;;1.95;;
63089;SDS011;49174;43.198;27.824;2022-07-10T07:35:39;5.03;;;1.55;;
63089;SDS011;49174;43.198;27.824;2022-07-10T07:38:05;4.15;;;1.65;;
63089;SDS011;49174;43.198;27.824;2022-07-10T07:40:31;4.45;;;2.10;;
63089;SDS011;49174;43.198;27.824;2022-07-10T07:42:57;2.55;;;2.03;;
63089;SDS011;49174;43.198;27.824;2022-07-10T07:45:23;4.18;;;1.92;;
63089;SDS011;49174;43.198;27.824;2022-07-10T07:47:51;2.72;;;1.70;;
63089;SDS011;49174;43.198;27.824;2022-07-10T07:50:21;3.65;;;1.63;;
63089;SDS011;49174;43.198;27.824;2022-07-10T07:52:53;2.80;;;1.60;;
63089;SDS011;49174;43.198;27.824;2022-07-10T07:55:20;3.00;;;2.08;;
63089;SDS011;49174;43.198;27.824;2022-07-10T07:57:46;8.85;;;1.63;;
63089;SDS011;49174;43.198;27.824;2022-07-10T08:00:13;4.18;;;1.70;;
63089;SDS011;49174;43.198;27.824;2022-07-10T08:02:42;3.15;;;1.50;;
63089;SDS011;49174;43.198;27.824;2022-07-10T08:05:08;2.20;;;1.50;;
63089;SDS011;49174;43.198;27.824;2022-07-10T08:07:35;3.67;;;1.70;;
63089;SDS011;49174;43.198;27.824;2022-07-10T08:10:03;3.17;;;1.77;;
63089;SDS011;49174;43.198;27.824;2022-07-10T08:12:29;5.60;;;1.60;;
63089;SDS011;49174;43.198;27.824;2022-07-10T08:14:55;1.75;;;1.60;;
63089;SDS011;49174;43.198;27.824;2022-07-10T08:17:21;2.03;;;1.80;;
63089;SDS011;49174;43.198;27.824;2022-07-10T08:19:46;2.60;;;1.70;;
63089;SDS011;49174;43.198;27.824;2022-07-10T08:22:12;2.80;;;1.77;;
63089;SDS011;49174;43.198;27.824;2022-07-10T08:24:38;2.78;;;1.67;;
63089;SDS011;49174;43.198;27.824;2022-07-10T08:27:04;3.78;;;1.80;;
63089;SDS011;49174;43.198;27.824;2022-07-10T08:29:31;3.38;;;1.90;;
63089;SDS011;49174;43.198;27.824;2022-07-10T08:31:57;4.28;;;1.77;;
63089;SDS011;49174;43.198;27.824;2022-07-10T08:34:22;1.95;;;1.73;;
63089;SDS011;49174;43.198;27.824;2022-07-10T08:36:48;3.65;;;1.45;;
63089;SDS011;49174;43.198;27.824;2022-07-10T08:39:13;3.90;;;2.00;;
63089;SDS011;49174;43.198;27.824;2022-07-10T08:41:41;2.17;;;1.90;;
63089;SDS011;49174;43.198;27.824;2022-07-10T08:44:08;4.63;;;2.00;;
63089;SDS011;49174;43.198;27.824;2022-07-10T08:46:34;2.15;;;1.92;;
63089;SDS011;49174;43.198;27.824;2022-07-10T08:49:00;4.60;;;2.10;;
63089;SDS011;49174;43.198;27.824;2022-07-10T08:51:41;3.45;;;2.10;;
63089;SDS011;49174;43.198;27.824;2022-07-10T08:54:19;2.95;;;1.92;;
63089;SDS011;49174;43.198;27.824;2022-07-10T08:56:46;3.70;;;2.00;;
63089;SDS011;49174;43.198;27.824;2022-07-10T08:59:12;3.05;;;1.85;;
63089;SDS011;49174;43.198;27.824;2022-07-10T09:01:39;2.78;;;1.90;;
63089;SDS011;49174;43.198;27.824;2022-07-10T09:04:05;2.58;;;2.00;;
63089;SDS011;49174;43.198;27.824;2022-07-10T09:06:31;1.60;;;1.50;;
63089;SDS011;49174;43.198;27.824;2022-07-10T09:09:01;4.88;;;1.95;;
63089;SDS011;49174;43.198;27.824;2022-07-10T09:11:32;4.03;;;3.35;;
63089;SDS011;49174;43.198;27.824;2022-07-10T09:16:26;2.20;;;1.50;;
63089;SDS011;49174;43.198;27.824;2022-07-10T09:21:47;1.58;;;1.48;;
63089;SDS011;49174;43.198;27.824;2022-07-10T09:24:14;3.35;;;1.67;;
63089;SDS011;49174;43.198;27.824;2022-07-10T09:27:02;5.72;;;1.60;;
63089;SDS011;49174;43.198;27.824;2022-07-10T09:29:29;2.25;;;1.50;;
63089;SDS011;49174;43.198;27.824;2022-07-10T09:31:56;1.58;;;1.40;;
63089;SDS011;49174;43.198;27.824;2022-07-10T09:42:32;1.60;;;1.20;;
63089;SDS011;49174;43.198;27.824;2022-07-10T09:50:27;3.55;;;1.50;;
63089;SDS011;49174;43.198;27.824;2022-07-10T09:52:55;2.88;;;1.50;;
63089;SDS011;49174;43.198;27.824;2022-07-10T09:55:32;2.35;;;1.70;;
63089;SDS011;49174;43.198;27.824;2022-07-10T09:58:06;3.30;;;2.05;;
63089;SDS011;49174;43.198;27.824;2022-07-10T10:00:34;1.83;;;1.42;;
63089;SDS011;49174;43.198;27.824;2022-07-10T10:03:02;2.15;;;1.42;;
63089;SDS011;49174;43.198;27.824;2022-07-10T10:06:15;5.75;;;1.83;;
63089;SDS011;49174;43.198;27.824;2022-07-10T10:08:19;2.95;;;1.60;;
63089;SDS011;49174;43.198;27.824;2022-07-10T10:10:54;3.83;;;1.60;;
63089;SDS011;49174;43.198;27.824;2022-07-10T10:13:24;1.35;;;1.20;;
63089;SDS011;49174;43.198;27.824;2022-07-10T10:15:54;2.70;;;1.45;;
63089;SDS011;49174;43.198;27.824;2022-07-10T10:18:21;2.00;;;1.30;;
63089;SDS011;49174;43.198;27.824;2022-07-10T10:20:52;1.30;;;1.10;;
63089;SDS011;49174;43.198;27.824;2022-07-10T10:23:19;2.80;;;1.67;;
63089;SDS011;49174;43.198;27.824;2022-07-10T10:25:51;1.52;;;1.20;;
63089;SDS011;49174;43.198;27.824;2022-07-10T10:28:19;1.52;;;1.27;;
63089;SDS011;49174;43.198;27.824;2022-07-10T10:30:50;1.20;;;1.10;;
63089;SDS011;49174;43.198;27.824;2022-07-10T10:36:09;3.28;;;1.40;;
63089;SDS011;49174;43.198;27.824;2022-07-10T10:46:53;1.42;;;1.15;;
63089;SDS011;49174;43.198;27.824;2022-07-10T10:49:47;2.30;;;1.20;;
63089;SDS011;49174;43.198;27.824;2022-07-10T10:52:14;1.30;;;1.20;;
63089;SDS011;49174;43.198;27.824;2022-07-10T10:57:22;3.58;;;1.30;;
63089;SDS011;49174;43.198;27.824;2022-07-10T10:59:57;1.30;;;1.13;;
63089;SDS011;49174;43.198;27.824;2022-07-10T11:02:29;3.13;;;1.20;;
63089;SDS011;49174;43.198;27.824;2022-07-10T11:13:11;2.22;;;1.30;;
63089;SDS011;49174;43.198;27.824;2022-07-10T11:15:45;2.45;;;1.30;;
63089;SDS011;49174;43.198;27.824;2022-07-10T11:18:13;2.88;;;1.48;;
63089;SDS011;49174;43.198;27.824;2022-07-10T11:20:50;2.08;;;1.30;;
63089;SDS011;49174;43.198;27.824;2022-07-10T11:26:13;1.73;;;1.30;;
63089;SDS011;49174;43.198;27.824;2022-07-10T11:28:49;2.20;;;0.95;;
63089;SDS011;49174;43.198;27.824;2022-07-10T11:31:14;2.85;;;1.58;;
63089;SDS011;49174;43.198;27.824;2022-07-10T11:33:42;5.03;;;3.47;;
63089;SDS011;49174;43.198;27.824;2022-07-10T11:36:12;1.77;;;1.40;;
63089;SDS011;49174;43.198;27.824;2022-07-10T11:39:03;3.13;;;1.48;;
63089;SDS011;49174;43.198;27.824;2022-07-10T11:41:30;2.45;;;1.20;;
63089;SDS011;49174;43.198;27.824;2022-07-10T11:43:57;1.90;;;1.27;;
63089;SDS011;49174;43.198;27.824;2022-07-10T11:46:25;3.22;;;1.30;;
63089;SDS011;49174;43.198;27.824;2022-07-10T11:48:52;1.55;;;1.30;;
63089;SDS011;49174;43.198;27.824;2022-07-10T11:51:23;2.78;;;1.38;;
63089;SDS011;49174;43.198;27.824;2022-07-10T11:56:33;1.63;;;1.30;;
63089;SDS011;49174;43.198;27.824;2022-07-10T11:59:02;4.75;;;1.48;;
63089;SDS011;49174;43.198;27.824;2022-07-10T12:01:30;3.72;;;1.40;;
63089;SDS011;49174;43.198;27.824;2022-07-10T12:04:05;5.20;;;1.42;;
63089;SDS011;49174;43.198;27.824;2022-07-10T12:06:32;1.45;;;1.08;;
63089;SDS011;49174;43.198;27.824;2022-07-10T12:09:02;1.23;;;1.10;;
63089;SDS011;49174;43.198;27.824;2022-07-10T12:11:35;1.92;;;1.20;;
63089;SDS011;49174;43.198;27.824;2022-07-10T12:14:17;1.65;;;1.40;;
63089;SDS011;49174;43.198;27.824;2022-07-10T12:16:45;2.53;;;1.33;;
63089;SDS011;49174;43.198;27.824;2022-07-10T12:19:23;6.85;;;1.40;;
63089;SDS011;49174;43.198;27.824;2022-07-10T12:21:50;1.42;;;1.05;;
63089;SDS011;49174;43.198;27.824;2022-07-10T12:24:16;2.88;;;1.38;;
63089;SDS011;49174;43.198;27.824;2022-07-10T12:26:44;2.08;;;1.52;;
63089;SDS011;49174;43.198;27.824;2022-07-10T12:29:11;1.88;;;1.50;;
63089;SDS011;49174;43.198;27.824;2022-07-10T12:31:43;2.53;;;1.50;;
63089;SDS011;49174;43.198;27.824;2022-07-10T12:34:10;3.30;;;1.50;;
63089;SDS011;49174;43.198;27.824;2022-07-10T12:39:09;2.83;;;1.05;;
63089;SDS011;49174;43.198;27.824;2022-07-10T12:41:52;2.47;;;1.13;;
63089;SDS011;49174;43.198;27.824;2022-07-10T12:47:07;1.83;;;1.30;;
63089;SDS011;49174;43.198;27.824;2022-07-10T12:49:49;1.40;;;1.15;;
63089;SDS011;49174;43.198;27.824;2022-07-10T12:52:25;1.50;;;1.40;;
63089;SDS011;49174;43.198;27.824;2022-07-10T12:55:09;1.40;;;1.10;;
63089;SDS011;49174;43.198;27.824;2022-07-10T13:00:12;2.60;;;1.17;;
63089;SDS011;49174;43.198;27.824;2022-07-10T13:02:39;1.42;;;1.17;;
63089;SDS011;49174;43.198;27.824;2022-07-10T13:05:06;1.65;;;1.33;;
63089;SDS011;49174;43.198;27.824;2022-07-10T13:07:33;1.23;;;1.13;;
63089;SDS011;49174;43.198;27.824;2022-07-10T13:10:03;2.75;;;1.20;;
63089;SDS011;49174;43.198;27.824;2022-07-10T13:12:33;2.72;;;1.20;;
63089;SDS011;49174;43.198;27.824;2022-07-10T13:15:00;0.90;;;0.90;;
63089;SDS011;49174;43.198;27.824;2022-07-10T13:17:26;1.35;;;1.20;;
63089;SDS011;49174;43.198;27.824;2022-07-10T13:19:52;1.38;;;1.00;;
63089;SDS011;49174;43.198;27.824;2022-07-10T13:22:17;2.47;;;1.20;;
63089;SDS011;49174;43.198;27.824;2022-07-10T13:24:43;1.77;;;1.30;;
63089;SDS011;49174;43.198;27.824;2022-07-10T13:27:09;2.35;;;1.40;;
63089;SDS011;49174;43.198;27.824;2022-07-10T13:29:35;1.38;;;1.10;;
63089;SDS011;49174;43.198;27.824;2022-07-10T13:32:01;4.05;;;1.20;;
63089;SDS011;49174;43.198;27.824;2022-07-10T13:34:27;1.85;;;1.30;;
63089;SDS011;49174;43.198;27.824;2022-07-10T13:36:54;1.58;;;1.40;;
63089;SDS011;49174;43.198;27.824;2022-07-10T13:39:20;2.33;;;1.55;;
63089;SDS011;49174;43.198;27.824;2022-07-10T13:41:46;1.10;;;1.00;;
63089;SDS011;49174;43.198;27.824;2022-07-10T13:44:11;3.53;;;1.83;;
63089;SDS011;49174;43.198;27.824;2022-07-10T13:46:37;3.08;;;1.30;;
63089;SDS011;49174;43.198;27.824;2022-07-10T13:49:05;2.67;;;1.58;;
63089;SDS011;49174;43.198;27.824;2022-07-10T13:51:31;1.98;;;1.40;;
63089;SDS011;49174;43.198;27.824;2022-07-10T13:53:56;3.47;;;1.30;;
63089;SDS011;49174;43.198;27.824;2022-07-10T13:56:22;2.50;;;1.55;;
63089;SDS011;49174;43.198;27.824;2022-07-10T13:58:48;1.30;;;1.20;;
63089;SDS011;49174;43.198;27.824;2022-07-10T14:01:14;2.85;;;1.30;;
63089;SDS011;49174;43.198;27.824;2022-07-10T14:03:40;1.20;;;1.10;;
63089;SDS011;49174;43.198;27.824;2022-07-10T14:06:05;1.20;;;1.00;;
63089;SDS011;49174;43.198;27.824;2022-07-10T14:08:31;2.45;;;1.17;;
63089;SDS011;49174;43.198;27.824;2022-07-10T14:10:56;1.50;;;1.17;;
63089;SDS011;49174;43.198;27.824;2022-07-10T14:13:22;2.33;;;1.13;;
63089;SDS011;49174;43.198;27.824;2022-07-10T14:15:48;4.50;;;1.30;;
63089;SDS011;49174;43.198;27.824;2022-07-10T14:18:13;1.60;;;1.02;;
63089;SDS011;49174;43.198;27.824;2022-07-10T14:20:59;2.13;;;1.40;;
63089;SDS011;49174;43.198;27.824;2022-07-10T14:23:27;3.38;;;1.50;;
63089;SDS011;49174;43.198;27.824;2022-07-10T14:25:53;4.03;;;1.50;;
63089;SDS011;49174;43.198;27.824;2022-07-10T14:28:20;2.65;;;1.30;;
63089;SDS011;49174;43.198;27.824;2022-07-10T14:30:46;4.00;;;1.42;;
63089;SDS011;49174;43.198;27.824;2022-07-10T14:33:11;1.70;;;1.27;;
63089;SDS011;49174;43.198;27.824;2022-07-10T14:35:37;1.70;;;1.20;;
63089;SDS011;49174;43.198;27.824;2022-07-10T14:38:02;2.95;;;1.40;;
63089;SDS011;49174;43.198;27.824;2022-07-10T14:40:28;2.00;;;1.30;;
63089;SDS011;49174;43.198;27.824;2022-07-10T14:42:54;2.85;;;1.40;;
63089;SDS011;49174;43.198;27.824;2022-07-10T14:45:22;1.60;;;1.25;;
63089;SDS011;49174;43.198;27.824;2022-07-10T14:47:49;3.67;;;1.58;;
63089;SDS011;49174;43.198;27.824;2022-07-10T14:50:15;5.03;;;1.15;;
63089;SDS011;49174;43.198;27.824;2022-07-10T14:52:42;3.08;;;1.10;;
63089;SDS011;49174;43.198;27.824;2022-07-10T14:55:10;4.55;;;1.30;;
63089;SDS011;49174;43.198;27.824;2022-07-10T14:57:36;2.00;;;1.35;;
63089;SDS011;49174;43.198;27.824;2022-07-10T15:00:03;1.95;;;1.30;;
63089;SDS011;49174;43.198;27.824;2022-07-10T15:02:29;2.03;;;1.25;;
63089;SDS011;49174;43.198;27.824;2022-07-10T15:04:55;1.73;;;1.15;;
63089;SDS011;49174;43.198;27.824;2022-07-10T15:07:20;2.53;;;1.63;;
63089;SDS011;49174;43.198;27.824;2022-07-10T15:09:46;4.25;;;1.55;;
63089;SDS011;49174;43.198;27.824;2022-07-10T15:12:12;3.40;;;1.30;;
63089;SDS011;49174;43.198;27.824;2022-07-10T15:14:38;5.60;;;1.98;;
63089;SDS011;49174;43.198;27.824;2022-07-10T15:17:04;2.70;;;1.20;;
63089;SDS011;49174;43.198;27.824;2022-07-10T15:19:29;1.92;;;1.30;;
63089;SDS011;49174;43.198;27.824;2022-07-10T15:21:56;1.30;;;1.20;;
63089;SDS011;49174;43.198;27.824;2022-07-10T15:24:21;1.70;;;1.20;;
63089;SDS011;49174;43.198;27.824;2022-07-10T15:26:47;2.53;;;1.50;;
63089;SDS011;49174;43.198;27.824;2022-07-10T15:29:13;2.67;;;1.40;;
63089;SDS011;49174;43.198;27.824;2022-07-10T15:31:38;1.40;;;1.20;;